sensor_id;sensor_type;location;lat;lon;timestamp;P1;durP1;ratioP1;P2;durP2;ratioP2
19812;SDS011;10066;48.108;11.448;2024-01-30T00:00:35;8.73;;;5.20;;
19812;SDS011;10066;48.108;11.448;2024-01-30T00:03:02;10.97;;;5.03;;
19812;SDS011;10066;48.108;11.448;2024-01-30T00:05:29;8.57;;;5.37;;
19812;SDS011;10066;48.108;11.448;2024-01-30T00:07:55;10.27;;;5.47;;
19812;SDS011;10066;48.108;11.448;2024-01-30T00:10:24;9.07;;;5.53;;
19812;SDS011;10066;48.108;11.448;2024-01-30T00:12:51;16.20;;;7.67;;
19812;SDS011;10066;48.108;11.448;2024-01-30T00:15:19;28.10;;;12.27;;
19812;SDS011;10066;48.108;11.448;2024-01-30T00:17:46;32.43;;;14.33;;
19812;SDS011;10066;48.108;11.448;2024-01-30T00:20:14;34.07;;;14.17;;
19812;SDS011;10066;48.108;11.448;2024-01-30T00:22:41;39.07;;;15.37;;
19812;SDS011;10066;48.108;11.448;2024-01-30T00:25:08;38.17;;;16.07;;
19812;SDS011;10066;48.108;11.448;2024-01-30T00:27:36;41.80;;;15.83;;
19812;SDS011;10066;48.108;11.448;2024-01-30T00:30:03;31.40;;;13.40;;
19812;SDS011;10066;48.108;11.448;2024-01-30T00:32:31;29.77;;;13.43;;
19812;SDS011;10066;48.108;11.448;2024-01-30T00:34:58;21.80;;;10.47;;
19812;SDS011;10066;48.108;11.448;2024-01-30T00:37:25;20.93;;;10.27;;
19812;SDS011;10066;48.108;11.448;2024-01-30T00:39:52;19.47;;;9.13;;
19812;SDS011;10066;48.108;11.448;2024-01-30T00:42:19;15.87;;;8.13;;
19812;SDS011;10066;48.108;11.448;2024-01-30T00:44:50;17.90;;;8.07;;
19812;SDS011;10066;48.108;11.448;2024-01-30T00:47:17;13.40;;;6.83;;
19812;SDS011;10066;48.108;11.448;2024-01-30T00:49:44;10.93;;;6.40;;
19812;SDS011;10066;48.108;11.448;2024-01-30T00:52:11;12.27;;;6.37;;
19812;SDS011;10066;48.108;11.448;2024-01-30T00:54:38;11.40;;;6.13;;
19812;SDS011;10066;48.108;11.448;2024-01-30T00:57:05;12.40;;;5.80;;
19812;SDS011;10066;48.108;11.448;2024-01-30T00:59:32;10.23;;;5.23;;
19812;SDS011;10066;48.108;11.448;2024-01-30T01:02:00;13.50;;;5.40;;
19812;SDS011;10066;48.108;11.448;2024-01-30T01:04:27;12.13;;;5.37;;
19812;SDS011;10066;48.108;11.448;2024-01-30T01:06:54;7.50;;;4.77;;
19812;SDS011;10066;48.108;11.448;2024-01-30T01:09:21;8.77;;;4.90;;
19812;SDS011;10066;48.108;11.448;2024-01-30T01:11:48;8.47;;;4.67;;
19812;SDS011;10066;48.108;11.448;2024-01-30T01:14:15;8.00;;;4.83;;
19812;SDS011;10066;48.108;11.448;2024-01-30T01:16:43;7.43;;;4.70;;
19812;SDS011;10066;48.108;11.448;2024-01-30T01:19:10;8.07;;;5.10;;
19812;SDS011;10066;48.108;11.448;2024-01-30T01:21:37;8.57;;;4.53;;
19812;SDS011;10066;48.108;11.448;2024-01-30T01:24:04;6.70;;;3.87;;
19812;SDS011;10066;48.108;11.448;2024-01-30T01:26:32;7.83;;;4.33;;
19812;SDS011;10066;48.108;11.448;2024-01-30T01:28:59;7.67;;;4.13;;
19812;SDS011;10066;48.108;11.448;2024-01-30T01:31:26;6.53;;;4.00;;
19812;SDS011;10066;48.108;11.448;2024-01-30T01:33:54;6.97;;;4.13;;
19812;SDS011;10066;48.108;11.448;2024-01-30T01:36:23;6.90;;;3.97;;
19812;SDS011;10066;48.108;11.448;2024-01-30T01:38:50;8.07;;;4.60;;
19812;SDS011;10066;48.108;11.448;2024-01-30T01:41:17;8.03;;;4.00;;
19812;SDS011;10066;48.108;11.448;2024-01-30T01:43:44;6.43;;;4.07;;
19812;SDS011;10066;48.108;11.448;2024-01-30T01:46:11;6.53;;;3.70;;
19812;SDS011;10066;48.108;11.448;2024-01-30T01:48:38;7.67;;;4.23;;
19812;SDS011;10066;48.108;11.448;2024-01-30T01:51:05;6.23;;;4.07;;
19812;SDS011;10066;48.108;11.448;2024-01-30T01:53:35;6.00;;;3.93;;
19812;SDS011;10066;48.108;11.448;2024-01-30T01:56:02;7.57;;;3.60;;
19812;SDS011;10066;48.108;11.448;2024-01-30T01:58:29;5.47;;;3.87;;
19812;SDS011;10066;48.108;11.448;2024-01-30T02:00:57;7.13;;;3.77;;
19812;SDS011;10066;48.108;11.448;2024-01-30T02:03:25;6.10;;;3.60;;
19812;SDS011;10066;48.108;11.448;2024-01-30T02:05:52;10.93;;;4.30;;
19812;SDS011;10066;48.108;11.448;2024-01-30T02:08:20;5.97;;;3.87;;
19812;SDS011;10066;48.108;11.448;2024-01-30T02:10:48;6.23;;;3.90;;
19812;SDS011;10066;48.108;11.448;2024-01-30T02:13:15;7.50;;;3.70;;
19812;SDS011;10066;48.108;11.448;2024-01-30T02:15:42;6.73;;;3.97;;
19812;SDS011;10066;48.108;11.448;2024-01-30T02:18:09;7.00;;;3.97;;
19812;SDS011;10066;48.108;11.448;2024-01-30T02:20:36;7.60;;;3.90;;
19812;SDS011;10066;48.108;11.448;2024-01-30T02:23:06;5.67;;;3.53;;
19812;SDS011;10066;48.108;11.448;2024-01-30T02:25:35;6.93;;;3.80;;
19812;SDS011;10066;48.108;11.448;2024-01-30T02:28:09;6.57;;;3.60;;
19812;SDS011;10066;48.108;11.448;2024-01-30T02:30:36;5.97;;;3.83;;
19812;SDS011;10066;48.108;11.448;2024-01-30T02:33:04;6.47;;;3.70;;
19812;SDS011;10066;48.108;11.448;2024-01-30T02:35:31;8.43;;;4.23;;
19812;SDS011;10066;48.108;11.448;2024-01-30T02:37:58;5.73;;;3.53;;
19812;SDS011;10066;48.108;11.448;2024-01-30T02:40:27;7.50;;;3.80;;
19812;SDS011;10066;48.108;11.448;2024-01-30T02:42:54;7.17;;;4.07;;
19812;SDS011;10066;48.108;11.448;2024-01-30T02:45:22;5.20;;;3.50;;
19812;SDS011;10066;48.108;11.448;2024-01-30T02:47:49;6.37;;;3.50;;
19812;SDS011;10066;48.108;11.448;2024-01-30T02:50:16;8.33;;;3.73;;
19812;SDS011;10066;48.108;11.448;2024-01-30T02:52:43;5.87;;;3.60;;
19812;SDS011;10066;48.108;11.448;2024-01-30T02:55:10;6.43;;;3.40;;
19812;SDS011;10066;48.108;11.448;2024-01-30T02:57:39;5.83;;;3.43;;
19812;SDS011;10066;48.108;11.448;2024-01-30T03:00:06;6.00;;;3.63;;
19812;SDS011;10066;48.108;11.448;2024-01-30T03:02:34;4.93;;;3.40;;
19812;SDS011;10066;48.108;11.448;2024-01-30T03:05:01;7.00;;;3.70;;
19812;SDS011;10066;48.108;11.448;2024-01-30T03:07:29;4.97;;;3.43;;
19812;SDS011;10066;48.108;11.448;2024-01-30T03:09:56;6.20;;;3.30;;
19812;SDS011;10066;48.108;11.448;2024-01-30T03:12:23;5.23;;;3.33;;
19812;SDS011;10066;48.108;11.448;2024-01-30T03:14:52;5.43;;;3.60;;
19812;SDS011;10066;48.108;11.448;2024-01-30T03:17:19;6.03;;;3.60;;
19812;SDS011;10066;48.108;11.448;2024-01-30T03:19:46;4.97;;;3.47;;
19812;SDS011;10066;48.108;11.448;2024-01-30T03:22:13;5.87;;;3.20;;
19812;SDS011;10066;48.108;11.448;2024-01-30T03:24:40;6.20;;;3.20;;
19812;SDS011;10066;48.108;11.448;2024-01-30T03:27:08;8.23;;;3.50;;
19812;SDS011;10066;48.108;11.448;2024-01-30T03:29:35;4.27;;;2.93;;
19812;SDS011;10066;48.108;11.448;2024-01-30T03:32:04;5.17;;;3.17;;
19812;SDS011;10066;48.108;11.448;2024-01-30T03:34:31;4.37;;;2.80;;
19812;SDS011;10066;48.108;11.448;2024-01-30T03:36:58;4.47;;;2.93;;
19812;SDS011;10066;48.108;11.448;2024-01-30T03:39:25;7.03;;;3.20;;
19812;SDS011;10066;48.108;11.448;2024-01-30T03:41:52;5.20;;;2.93;;
19812;SDS011;10066;48.108;11.448;2024-01-30T03:44:19;5.50;;;3.13;;
19812;SDS011;10066;48.108;11.448;2024-01-30T03:46:46;7.60;;;3.20;;
19812;SDS011;10066;48.108;11.448;2024-01-30T03:49:14;5.17;;;2.70;;
19812;SDS011;10066;48.108;11.448;2024-01-30T03:51:41;5.40;;;3.10;;
19812;SDS011;10066;48.108;11.448;2024-01-30T03:54:08;3.60;;;2.60;;
19812;SDS011;10066;48.108;11.448;2024-01-30T03:56:36;4.83;;;2.90;;
19812;SDS011;10066;48.108;11.448;2024-01-30T03:59:03;3.53;;;2.73;;
19812;SDS011;10066;48.108;11.448;2024-01-30T04:01:30;4.57;;;2.90;;
19812;SDS011;10066;48.108;11.448;2024-01-30T04:03:57;4.07;;;2.83;;
19812;SDS011;10066;48.108;11.448;2024-01-30T04:06:27;4.90;;;2.60;;
19812;SDS011;10066;48.108;11.448;2024-01-30T04:08:53;5.83;;;2.63;;
19812;SDS011;10066;48.108;11.448;2024-01-30T04:11:20;4.93;;;2.60;;
19812;SDS011;10066;48.108;11.448;2024-01-30T04:13:47;5.50;;;2.70;;
19812;SDS011;10066;48.108;11.448;2024-01-30T04:16:21;4.87;;;2.80;;
19812;SDS011;10066;48.108;11.448;2024-01-30T04:18:48;3.87;;;2.70;;
19812;SDS011;10066;48.108;11.448;2024-01-30T04:21:15;5.80;;;2.70;;
19812;SDS011;10066;48.108;11.448;2024-01-30T04:23:47;4.73;;;2.97;;
19812;SDS011;10066;48.108;11.448;2024-01-30T04:26:14;4.80;;;2.53;;
19812;SDS011;10066;48.108;11.448;2024-01-30T04:28:42;5.80;;;2.67;;
19812;SDS011;10066;48.108;11.448;2024-01-30T04:31:10;4.33;;;2.63;;
19812;SDS011;10066;48.108;11.448;2024-01-30T04:33:38;4.23;;;2.67;;
19812;SDS011;10066;48.108;11.448;2024-01-30T04:36:07;6.60;;;2.77;;
19812;SDS011;10066;48.108;11.448;2024-01-30T04:38:36;4.40;;;3.10;;
19812;SDS011;10066;48.108;11.448;2024-01-30T04:41:05;4.07;;;2.70;;
19812;SDS011;10066;48.108;11.448;2024-01-30T04:43:32;5.00;;;2.50;;
19812;SDS011;10066;48.108;11.448;2024-01-30T04:45:59;4.20;;;2.43;;
19812;SDS011;10066;48.108;11.448;2024-01-30T04:48:26;6.00;;;2.37;;
19812;SDS011;10066;48.108;11.448;2024-01-30T04:50:53;4.27;;;2.30;;
19812;SDS011;10066;48.108;11.448;2024-01-30T04:53:21;4.80;;;2.43;;
19812;SDS011;10066;48.108;11.448;2024-01-30T04:55:48;4.17;;;2.27;;
19812;SDS011;10066;48.108;11.448;2024-01-30T04:58:16;3.23;;;2.20;;
19812;SDS011;10066;48.108;11.448;2024-01-30T05:00:43;15.50;;;2.90;;
19812;SDS011;10066;48.108;11.448;2024-01-30T05:03:11;4.03;;;2.50;;
19812;SDS011;10066;48.108;11.448;2024-01-30T05:05:38;4.67;;;2.50;;
19812;SDS011;10066;48.108;11.448;2024-01-30T05:08:05;4.80;;;2.67;;
19812;SDS011;10066;48.108;11.448;2024-01-30T05:10:32;6.20;;;2.60;;
19812;SDS011;10066;48.108;11.448;2024-01-30T05:12:59;3.73;;;2.83;;
19812;SDS011;10066;48.108;11.448;2024-01-30T05:15:28;3.67;;;2.63;;
19812;SDS011;10066;48.108;11.448;2024-01-30T05:17:55;4.07;;;2.53;;
19812;SDS011;10066;48.108;11.448;2024-01-30T05:20:22;4.00;;;2.40;;
19812;SDS011;10066;48.108;11.448;2024-01-30T05:22:49;4.13;;;2.33;;
19812;SDS011;10066;48.108;11.448;2024-01-30T05:25:16;6.87;;;2.57;;
19812;SDS011;10066;48.108;11.448;2024-01-30T05:27:44;4.67;;;2.77;;
19812;SDS011;10066;48.108;11.448;2024-01-30T05:30:11;3.37;;;2.60;;
19812;SDS011;10066;48.108;11.448;2024-01-30T05:32:40;4.83;;;3.00;;
19812;SDS011;10066;48.108;11.448;2024-01-30T05:35:07;5.63;;;2.97;;
19812;SDS011;10066;48.108;11.448;2024-01-30T05:37:34;4.47;;;2.93;;
19812;SDS011;10066;48.108;11.448;2024-01-30T05:40:01;4.00;;;2.87;;
19812;SDS011;10066;48.108;11.448;2024-01-30T05:42:29;6.20;;;3.70;;
19812;SDS011;10066;48.108;11.448;2024-01-30T05:44:56;5.73;;;3.40;;
19812;SDS011;10066;48.108;11.448;2024-01-30T05:47:23;5.20;;;2.97;;
19812;SDS011;10066;48.108;11.448;2024-01-30T05:49:52;4.50;;;3.00;;
19812;SDS011;10066;48.108;11.448;2024-01-30T05:52:19;6.87;;;3.63;;
19812;SDS011;10066;48.108;11.448;2024-01-30T05:54:46;5.53;;;3.40;;
19812;SDS011;10066;48.108;11.448;2024-01-30T05:57:13;8.20;;;4.63;;
19812;SDS011;10066;48.108;11.448;2024-01-30T05:59:40;7.47;;;4.00;;
19812;SDS011;10066;48.108;11.448;2024-01-30T06:02:09;7.10;;;4.27;;
19812;SDS011;10066;48.108;11.448;2024-01-30T06:04:37;5.27;;;3.20;;
19812;SDS011;10066;48.108;11.448;2024-01-30T06:07:05;6.13;;;3.20;;
19812;SDS011;10066;48.108;11.448;2024-01-30T06:09:33;4.77;;;3.07;;
19812;SDS011;10066;48.108;11.448;2024-01-30T06:12:00;5.93;;;3.30;;
19812;SDS011;10066;48.108;11.448;2024-01-30T06:14:27;4.77;;;3.00;;
19812;SDS011;10066;48.108;11.448;2024-01-30T06:16:54;4.90;;;3.00;;
19812;SDS011;10066;48.108;11.448;2024-01-30T06:19:21;6.13;;;3.17;;
19812;SDS011;10066;48.108;11.448;2024-01-30T06:21:48;4.27;;;3.17;;
19812;SDS011;10066;48.108;11.448;2024-01-30T06:24:16;4.40;;;2.87;;
19812;SDS011;10066;48.108;11.448;2024-01-30T06:26:44;3.80;;;2.90;;
19812;SDS011;10066;48.108;11.448;2024-01-30T06:29:12;4.13;;;2.83;;
19812;SDS011;10066;48.108;11.448;2024-01-30T06:31:40;4.53;;;2.97;;
19812;SDS011;10066;48.108;11.448;2024-01-30T06:34:07;3.33;;;2.50;;
19812;SDS011;10066;48.108;11.448;2024-01-30T06:36:34;6.90;;;2.60;;
19812;SDS011;10066;48.108;11.448;2024-01-30T06:39:02;3.77;;;2.30;;
19812;SDS011;10066;48.108;11.448;2024-01-30T06:41:31;5.83;;;2.70;;
19812;SDS011;10066;48.108;11.448;2024-01-30T06:43:58;3.67;;;2.33;;
19812;SDS011;10066;48.108;11.448;2024-01-30T06:46:25;3.73;;;2.50;;
19812;SDS011;10066;48.108;11.448;2024-01-30T06:48:52;3.60;;;2.43;;
19812;SDS011;10066;48.108;11.448;2024-01-30T06:51:21;3.70;;;2.50;;
19812;SDS011;10066;48.108;11.448;2024-01-30T06:53:48;4.23;;;2.67;;
19812;SDS011;10066;48.108;11.448;2024-01-30T06:56:15;4.73;;;2.77;;
19812;SDS011;10066;48.108;11.448;2024-01-30T06:58:47;4.17;;;2.47;;
19812;SDS011;10066;48.108;11.448;2024-01-30T07:01:14;7.00;;;2.80;;
19812;SDS011;10066;48.108;11.448;2024-01-30T07:03:41;5.13;;;3.33;;
19812;SDS011;10066;48.108;11.448;2024-01-30T07:06:09;9.30;;;3.10;;
19812;SDS011;10066;48.108;11.448;2024-01-30T07:08:37;6.27;;;3.13;;
19812;SDS011;10066;48.108;11.448;2024-01-30T07:11:04;4.40;;;3.10;;
19812;SDS011;10066;48.108;11.448;2024-01-30T07:13:31;12.87;;;4.40;;
19812;SDS011;10066;48.108;11.448;2024-01-30T07:15:59;6.20;;;3.07;;
19812;SDS011;10066;48.108;11.448;2024-01-30T07:18:26;8.07;;;3.07;;
19812;SDS011;10066;48.108;11.448;2024-01-30T07:20:54;10.53;;;3.43;;
19812;SDS011;10066;48.108;11.448;2024-01-30T07:23:20;8.30;;;3.53;;
19812;SDS011;10066;48.108;11.448;2024-01-30T07:25:48;4.57;;;3.07;;
19812;SDS011;10066;48.108;11.448;2024-01-30T07:28:15;6.47;;;2.70;;
19812;SDS011;10066;48.108;11.448;2024-01-30T07:30:43;4.23;;;2.60;;
19812;SDS011;10066;48.108;11.448;2024-01-30T07:33:12;4.50;;;2.70;;
19812;SDS011;10066;48.108;11.448;2024-01-30T07:35:39;5.17;;;2.87;;
19812;SDS011;10066;48.108;11.448;2024-01-30T07:38:06;5.37;;;3.10;;
19812;SDS011;10066;48.108;11.448;2024-01-30T07:40:33;6.30;;;3.37;;
19812;SDS011;10066;48.108;11.448;2024-01-30T07:43:00;7.37;;;3.30;;
19812;SDS011;10066;48.108;11.448;2024-01-30T07:45:28;10.57;;;3.20;;
19812;SDS011;10066;48.108;11.448;2024-01-30T07:47:57;10.80;;;3.10;;
19812;SDS011;10066;48.108;11.448;2024-01-30T07:50:29;5.47;;;3.17;;
19812;SDS011;10066;48.108;11.448;2024-01-30T07:52:56;6.43;;;3.00;;
19812;SDS011;10066;48.108;11.448;2024-01-30T07:55:25;5.50;;;2.60;;
19812;SDS011;10066;48.108;11.448;2024-01-30T07:57:54;5.37;;;2.73;;
19812;SDS011;10066;48.108;11.448;2024-01-30T08:00:21;5.37;;;3.10;;
19812;SDS011;10066;48.108;11.448;2024-01-30T08:02:48;8.00;;;2.90;;
19812;SDS011;10066;48.108;11.448;2024-01-30T08:05:15;10.00;;;2.67;;
19812;SDS011;10066;48.108;11.448;2024-01-30T08:07:44;6.53;;;2.83;;
19812;SDS011;10066;48.108;11.448;2024-01-30T08:10:11;5.13;;;2.57;;
19812;SDS011;10066;48.108;11.448;2024-01-30T08:12:38;5.20;;;2.93;;
19812;SDS011;10066;48.108;11.448;2024-01-30T08:15:06;5.63;;;2.73;;
19812;SDS011;10066;48.108;11.448;2024-01-30T08:17:33;4.20;;;2.60;;
19812;SDS011;10066;48.108;11.448;2024-01-30T08:20:00;4.77;;;2.77;;
19812;SDS011;10066;48.108;11.448;2024-01-30T08:22:29;4.60;;;2.63;;
19812;SDS011;10066;48.108;11.448;2024-01-30T08:24:58;4.87;;;2.90;;
19812;SDS011;10066;48.108;11.448;2024-01-30T08:27:25;4.57;;;2.50;;
19812;SDS011;10066;48.108;11.448;2024-01-30T08:29:52;6.67;;;2.77;;
19812;SDS011;10066;48.108;11.448;2024-01-30T08:32:20;7.97;;;2.97;;
19812;SDS011;10066;48.108;11.448;2024-01-30T08:34:47;4.43;;;2.57;;
19812;SDS011;10066;48.108;11.448;2024-01-30T08:37:14;5.17;;;2.80;;
19812;SDS011;10066;48.108;11.448;2024-01-30T08:39:41;5.90;;;2.47;;
19812;SDS011;10066;48.108;11.448;2024-01-30T08:42:10;6.27;;;2.33;;
19812;SDS011;10066;48.108;11.448;2024-01-30T08:44:37;4.97;;;2.57;;
19812;SDS011;10066;48.108;11.448;2024-01-30T08:47:04;4.10;;;2.30;;
19812;SDS011;10066;48.108;11.448;2024-01-30T08:49:32;4.47;;;2.17;;
19812;SDS011;10066;48.108;11.448;2024-01-30T08:51:59;6.23;;;2.23;;
19812;SDS011;10066;48.108;11.448;2024-01-30T08:54:26;4.65;;;2.40;;
19812;SDS011;10066;48.108;11.448;2024-01-30T08:56:53;4.73;;;2.60;;
19812;SDS011;10066;48.108;11.448;2024-01-30T08:59:23;7.53;;;2.87;;
19812;SDS011;10066;48.108;11.448;2024-01-30T09:01:50;9.43;;;3.07;;
19812;SDS011;10066;48.108;11.448;2024-01-30T09:04:19;6.03;;;3.10;;
19812;SDS011;10066;48.108;11.448;2024-01-30T09:06:47;7.47;;;2.90;;
19812;SDS011;10066;48.108;11.448;2024-01-30T09:09:15;6.37;;;2.83;;
19812;SDS011;10066;48.108;11.448;2024-01-30T09:11:42;4.53;;;2.60;;
19812;SDS011;10066;48.108;11.448;2024-01-30T09:14:10;5.30;;;2.73;;
19812;SDS011;10066;48.108;11.448;2024-01-30T09:16:38;7.30;;;2.57;;
19812;SDS011;10066;48.108;11.448;2024-01-30T09:19:05;4.93;;;2.60;;
19812;SDS011;10066;48.108;11.448;2024-01-30T09:21:32;5.27;;;2.33;;
19812;SDS011;10066;48.108;11.448;2024-01-30T09:24:01;6.97;;;2.63;;
19812;SDS011;10066;48.108;11.448;2024-01-30T09:26:29;3.43;;;2.07;;
19812;SDS011;10066;48.108;11.448;2024-01-30T09:28:56;4.47;;;2.27;;
19812;SDS011;10066;48.108;11.448;2024-01-30T09:31:23;5.27;;;2.07;;
19812;SDS011;10066;48.108;11.448;2024-01-30T09:33:52;7.27;;;2.83;;
19812;SDS011;10066;48.108;11.448;2024-01-30T09:36:19;7.33;;;2.00;;
19812;SDS011;10066;48.108;11.448;2024-01-30T09:38:46;3.30;;;1.83;;
19812;SDS011;10066;48.108;11.448;2024-01-30T09:41:14;3.73;;;1.77;;
19812;SDS011;10066;48.108;11.448;2024-01-30T09:43:43;4.77;;;1.90;;
19812;SDS011;10066;48.108;11.448;2024-01-30T09:46:14;3.40;;;1.73;;
19812;SDS011;10066;48.108;11.448;2024-01-30T09:48:44;3.27;;;1.90;;
19812;SDS011;10066;48.108;11.448;2024-01-30T09:51:14;2.70;;;1.77;;
19812;SDS011;10066;48.108;11.448;2024-01-30T09:53:42;6.07;;;1.80;;
19812;SDS011;10066;48.108;11.448;2024-01-30T09:56:10;4.23;;;1.93;;
19812;SDS011;10066;48.108;11.448;2024-01-30T09:58:38;3.23;;;1.93;;
19812;SDS011;10066;48.108;11.448;2024-01-30T10:01:05;3.83;;;1.90;;
19812;SDS011;10066;48.108;11.448;2024-01-30T10:03:32;4.67;;;1.90;;
19812;SDS011;10066;48.108;11.448;2024-01-30T10:05:59;5.43;;;1.80;;
19812;SDS011;10066;48.108;11.448;2024-01-30T10:08:29;4.40;;;1.50;;
19812;SDS011;10066;48.108;11.448;2024-01-30T10:10:56;3.40;;;1.60;;
19812;SDS011;10066;48.108;11.448;2024-01-30T10:13:23;4.00;;;1.73;;
19812;SDS011;10066;48.108;11.448;2024-01-30T10:15:52;3.10;;;1.40;;
19812;SDS011;10066;48.108;11.448;2024-01-30T10:18:20;3.60;;;1.80;;
19812;SDS011;10066;48.108;11.448;2024-01-30T10:20:49;3.73;;;1.80;;
19812;SDS011;10066;48.108;11.448;2024-01-30T10:23:16;5.20;;;1.53;;
19812;SDS011;10066;48.108;11.448;2024-01-30T10:25:45;3.53;;;1.60;;
19812;SDS011;10066;48.108;11.448;2024-01-30T10:28:13;2.93;;;1.70;;
19812;SDS011;10066;48.108;11.448;2024-01-30T10:30:40;4.93;;;2.27;;
19812;SDS011;10066;48.108;11.448;2024-01-30T10:33:07;8.37;;;1.90;;
19812;SDS011;10066;48.108;11.448;2024-01-30T10:35:34;5.00;;;1.90;;
19812;SDS011;10066;48.108;11.448;2024-01-30T10:38:00;4.37;;;2.10;;
19812;SDS011;10066;48.108;11.448;2024-01-30T10:40:28;8.43;;;2.40;;
19812;SDS011;10066;48.108;11.448;2024-01-30T10:42:57;6.77;;;2.20;;
19812;SDS011;10066;48.108;11.448;2024-01-30T10:45:28;6.53;;;2.40;;
19812;SDS011;10066;48.108;11.448;2024-01-30T10:47:56;6.03;;;2.40;;
19812;SDS011;10066;48.108;11.448;2024-01-30T10:50:26;9.00;;;2.85;;
19812;SDS011;10066;48.108;11.448;2024-01-30T10:52:54;8.20;;;2.40;;
19812;SDS011;10066;48.108;11.448;2024-01-30T10:55:22;7.70;;;2.30;;
19812;SDS011;10066;48.108;11.448;2024-01-30T10:57:49;6.00;;;2.30;;
19812;SDS011;10066;48.108;11.448;2024-01-30T11:00:19;5.23;;;2.13;;
19812;SDS011;10066;48.108;11.448;2024-01-30T11:02:49;8.90;;;2.70;;
19812;SDS011;10066;48.108;11.448;2024-01-30T11:05:23;9.30;;;2.47;;
19812;SDS011;10066;48.108;11.448;2024-01-30T11:07:51;10.20;;;2.47;;
19812;SDS011;10066;48.108;11.448;2024-01-30T11:10:18;11.67;;;2.50;;
19812;SDS011;10066;48.108;11.448;2024-01-30T11:12:45;9.17;;;2.40;;
19812;SDS011;10066;48.108;11.448;2024-01-30T11:15:13;10.17;;;2.70;;
19812;SDS011;10066;48.108;11.448;2024-01-30T11:17:44;4.97;;;2.33;;
19812;SDS011;10066;48.108;11.448;2024-01-30T11:20:16;6.60;;;2.20;;
19812;SDS011;10066;48.108;11.448;2024-01-30T11:22:47;6.00;;;2.40;;
19812;SDS011;10066;48.108;11.448;2024-01-30T11:25:15;9.17;;;2.60;;
19812;SDS011;10066;48.108;11.448;2024-01-30T11:27:43;5.60;;;2.47;;
19812;SDS011;10066;48.108;11.448;2024-01-30T11:30:11;10.50;;;2.43;;
19812;SDS011;10066;48.108;11.448;2024-01-30T11:32:58;9.40;;;2.20;;
19812;SDS011;10066;48.108;11.448;2024-01-30T11:35:26;9.90;;;2.40;;
19812;SDS011;10066;48.108;11.448;2024-01-30T11:37:54;10.60;;;2.60;;
19812;SDS011;10066;48.108;11.448;2024-01-30T11:40:23;4.27;;;2.07;;
19812;SDS011;10066;48.108;11.448;2024-01-30T11:42:52;7.40;;;2.03;;
19812;SDS011;10066;48.108;11.448;2024-01-30T11:45:21;4.90;;;2.03;;
19812;SDS011;10066;48.108;11.448;2024-01-30T11:47:48;4.63;;;2.30;;
19812;SDS011;10066;48.108;11.448;2024-01-30T11:50:17;10.57;;;2.80;;
19812;SDS011;10066;48.108;11.448;2024-01-30T11:52:44;9.27;;;2.17;;
19812;SDS011;10066;48.108;11.448;2024-01-30T11:55:11;5.00;;;2.10;;
19812;SDS011;10066;48.108;11.448;2024-01-30T11:57:39;7.10;;;2.27;;
19812;SDS011;10066;48.108;11.448;2024-01-30T12:00:13;7.80;;;2.67;;
19812;SDS011;10066;48.108;11.448;2024-01-30T12:02:41;4.83;;;2.60;;
19812;SDS011;10066;48.108;11.448;2024-01-30T12:05:08;9.23;;;2.33;;
19812;SDS011;10066;48.108;11.448;2024-01-30T12:07:37;6.53;;;2.50;;
19812;SDS011;10066;48.108;11.448;2024-01-30T12:10:04;6.97;;;2.30;;
19812;SDS011;10066;48.108;11.448;2024-01-30T12:12:33;6.00;;;2.47;;
19812;SDS011;10066;48.108;11.448;2024-01-30T12:15:01;5.00;;;2.23;;
19812;SDS011;10066;48.108;11.448;2024-01-30T12:17:28;3.73;;;1.90;;
19812;SDS011;10066;48.108;11.448;2024-01-30T12:20:03;6.57;;;2.43;;
19812;SDS011;10066;48.108;11.448;2024-01-30T12:22:32;7.10;;;2.23;;
19812;SDS011;10066;48.108;11.448;2024-01-30T12:25:01;7.20;;;2.40;;
19812;SDS011;10066;48.108;11.448;2024-01-30T12:27:29;5.80;;;2.33;;
19812;SDS011;10066;48.108;11.448;2024-01-30T12:29:56;7.47;;;2.10;;
19812;SDS011;10066;48.108;11.448;2024-01-30T12:32:24;5.00;;;2.33;;
19812;SDS011;10066;48.108;11.448;2024-01-30T12:34:54;6.83;;;2.00;;
19812;SDS011;10066;48.108;11.448;2024-01-30T12:37:21;11.07;;;2.50;;
19812;SDS011;10066;48.108;11.448;2024-01-30T12:39:50;13.83;;;3.00;;
19812;SDS011;10066;48.108;11.448;2024-01-30T12:42:21;5.70;;;2.43;;
19812;SDS011;10066;48.108;11.448;2024-01-30T12:44:48;4.00;;;1.97;;
19812;SDS011;10066;48.108;11.448;2024-01-30T12:47:16;7.70;;;2.07;;
19812;SDS011;10066;48.108;11.448;2024-01-30T12:49:43;4.43;;;2.00;;
19812;SDS011;10066;48.108;11.448;2024-01-30T12:52:10;6.07;;;1.87;;
19812;SDS011;10066;48.108;11.448;2024-01-30T12:54:38;8.20;;;2.30;;
19812;SDS011;10066;48.108;11.448;2024-01-30T12:57:05;7.23;;;2.30;;
19812;SDS011;10066;48.108;11.448;2024-01-30T12:59:34;5.37;;;2.27;;
19812;SDS011;10066;48.108;11.448;2024-01-30T13:02:01;10.73;;;2.23;;
19812;SDS011;10066;48.108;11.448;2024-01-30T13:04:28;7.00;;;2.30;;
19812;SDS011;10066;48.108;11.448;2024-01-30T13:06:55;8.90;;;2.20;;
19812;SDS011;10066;48.108;11.448;2024-01-30T13:09:23;8.43;;;2.10;;
19812;SDS011;10066;48.108;11.448;2024-01-30T13:11:50;10.03;;;1.97;;
19812;SDS011;10066;48.108;11.448;2024-01-30T13:14:17;3.77;;;1.97;;
19812;SDS011;10066;48.108;11.448;2024-01-30T13:16:46;7.17;;;2.10;;
19812;SDS011;10066;48.108;11.448;2024-01-30T13:19:14;4.30;;;1.90;;
19812;SDS011;10066;48.108;11.448;2024-01-30T13:21:41;6.57;;;2.13;;
19812;SDS011;10066;48.108;11.448;2024-01-30T13:24:08;5.80;;;1.80;;
19812;SDS011;10066;48.108;11.448;2024-01-30T13:26:35;7.40;;;2.13;;
19812;SDS011;10066;48.108;11.448;2024-01-30T13:29:03;4.77;;;1.90;;
19812;SDS011;10066;48.108;11.448;2024-01-30T13:31:30;6.43;;;1.97;;
19812;SDS011;10066;48.108;11.448;2024-01-30T13:33:58;3.63;;;1.90;;
19812;SDS011;10066;48.108;11.448;2024-01-30T13:36:25;3.27;;;1.47;;
19812;SDS011;10066;48.108;11.448;2024-01-30T13:38:52;8.37;;;1.97;;
19812;SDS011;10066;48.108;11.448;2024-01-30T13:41:19;4.10;;;2.07;;
19812;SDS011;10066;48.108;11.448;2024-01-30T13:43:48;5.40;;;1.80;;
19812;SDS011;10066;48.108;11.448;2024-01-30T13:46:15;6.77;;;2.60;;
19812;SDS011;10066;48.108;11.448;2024-01-30T13:48:43;13.00;;;2.53;;
19812;SDS011;10066;48.108;11.448;2024-01-30T13:51:11;11.20;;;2.60;;
19812;SDS011;10066;48.108;11.448;2024-01-30T13:53:38;9.80;;;2.80;;
19812;SDS011;10066;48.108;11.448;2024-01-30T13:56:06;8.67;;;2.57;;
19812;SDS011;10066;48.108;11.448;2024-01-30T13:58:33;13.03;;;2.33;;
19812;SDS011;10066;48.108;11.448;2024-01-30T14:01:01;13.23;;;2.60;;
19812;SDS011;10066;48.108;11.448;2024-01-30T14:03:28;7.57;;;2.50;;
19812;SDS011;10066;48.108;11.448;2024-01-30T14:05:55;10.33;;;2.40;;
19812;SDS011;10066;48.108;11.448;2024-01-30T14:08:24;9.97;;;2.70;;
19812;SDS011;10066;48.108;11.448;2024-01-30T14:10:53;9.30;;;2.40;;
19812;SDS011;10066;48.108;11.448;2024-01-30T14:13:20;9.47;;;2.77;;
19812;SDS011;10066;48.108;11.448;2024-01-30T14:15:47;9.17;;;2.27;;
19812;SDS011;10066;48.108;11.448;2024-01-30T14:18:15;9.40;;;2.97;;
19812;SDS011;10066;48.108;11.448;2024-01-30T14:20:42;4.43;;;2.40;;
19812;SDS011;10066;48.108;11.448;2024-01-30T14:23:09;17.90;;;2.60;;
19812;SDS011;10066;48.108;11.448;2024-01-30T14:25:38;16.07;;;2.40;;
19812;SDS011;10066;48.108;11.448;2024-01-30T14:28:05;8.10;;;2.60;;
19812;SDS011;10066;48.108;11.448;2024-01-30T14:30:32;9.40;;;2.77;;
19812;SDS011;10066;48.108;11.448;2024-01-30T14:33:00;13.67;;;2.80;;
19812;SDS011;10066;48.108;11.448;2024-01-30T14:35:28;11.67;;;2.70;;